sensor_id;sensor_type;location;lat;lon;timestamp;pressure;altitude;pressure_sealevel;temperature;humidity
14902;BME280;7542;49.078;9.194;2023-06-22T00:00:11;98613.28;;;31.47;40.03
14902;BME280;7542;49.078;9.194;2023-06-22T00:01:14;98615.50;;;31.44;39.99
14902;BME280;7542;49.078;9.194;2023-06-22T00:02:16;98616.63;;;31.43;40.09
14902;BME280;7542;49.078;9.194;2023-06-22T00:03:20;98611.50;;;31.42;39.76
14902;BME280;7542;49.078;9.194;2023-06-22T00:04:23;98611.50;;;31.42;39.92
14902;BME280;7542;49.078;9.194;2023-06-22T00:05:25;98615.63;;;31.39;39.98
14902;BME280;7542;49.078;9.194;2023-06-22T00:06:27;98618.94;;;31.36;40.11
14902;BME280;7542;49.078;9.194;2023-06-22T00:07:29;98613.81;;;31.35;40.24
14902;BME280;7542;49.078;9.194;2023-06-22T00:08:30;98613.34;;;31.33;40.36
14902;BME280;7542;49.078;9.194;2023-06-22T00:09:33;98613.66;;;31.31;40.18
14902;BME280;7542;49.078;9.194;2023-06-22T00:10:35;98608.53;;;31.30;40.30
14902;BME280;7542;49.078;9.194;2023-06-22T00:11:37;98606.72;;;31.25;40.27
14902;BME280;7542;49.078;9.194;2023-06-22T00:12:39;98601.31;;;31.25;40.75
14902;BME280;7542;49.078;9.194;2023-06-22T00:13:41;98600.81;;;31.23;40.49
14902;BME280;7542;49.078;9.194;2023-06-22T00:14:43;98592.19;;;31.21;40.38
14902;BME280;7542;49.078;9.194;2023-06-22T00:15:45;98592.19;;;31.21;40.50
14902;BME280;7542;49.078;9.194;2023-06-22T00:16:47;98600.63;;;31.20;40.56
14902;BME280;7542;49.078;9.194;2023-06-22T00:17:51;98590.88;;;31.19;40.32
14902;BME280;7542;49.078;9.194;2023-06-22T00:18:52;98595.78;;;31.16;40.39
14902;BME280;7542;49.078;9.194;2023-06-22T00:19:54;98590.38;;;31.16;40.20
14902;BME280;7542;49.078;9.194;2023-06-22T00:20:57;98590.66;;;31.15;40.75
14902;BME280;7542;49.078;9.194;2023-06-22T00:22:01;98582.03;;;31.13;40.54
14902;BME280;7542;49.078;9.194;2023-06-22T00:23:06;98583.16;;;31.12;40.73
14902;BME280;7542;49.078;9.194;2023-06-22T00:24:11;98587.75;;;31.11;40.73
14902;BME280;7542;49.078;9.194;2023-06-22T00:25:13;98589.19;;;31.09;40.25
14902;BME280;7542;49.078;9.194;2023-06-22T00:26:15;98579.47;;;31.08;40.76
14902;BME280;7542;49.078;9.194;2023-06-22T00:27:17;98582.78;;;31.05;40.53
14902;BME280;7542;49.078;9.194;2023-06-22T00:28:19;98578.44;;;31.04;40.85
14902;BME280;7542;49.078;9.194;2023-06-22T00:29:21;98584.16;;;31.02;40.56
14902;BME280;7542;49.078;9.194;2023-06-22T00:30:26;98576.34;;;31.01;40.74
14902;BME280;7542;49.078;9.194;2023-06-22T00:31:28;98581.28;;;30.99;40.72
14902;BME280;7542;49.078;9.194;2023-06-22T00:32:30;98591.13;;;30.95;41.00
14902;BME280;7542;49.078;9.194;2023-06-22T00:33:32;98598.72;;;30.93;40.59
14902;BME280;7542;49.078;9.194;2023-06-22T00:34:34;98601.44;;;30.93;40.68
14902;BME280;7542;49.078;9.194;2023-06-22T00:35:36;98595.22;;;30.92;40.56
14902;BME280;7542;49.078;9.194;2023-06-22T00:36:38;98594.72;;;30.90;40.74
14902;BME280;7542;49.078;9.194;2023-06-22T00:37:42;98593.91;;;30.90;40.68
14902;BME280;7542;49.078;9.194;2023-06-22T00:38:44;98603.16;;;30.88;40.89
14902;BME280;7542;49.078;9.194;2023-06-22T00:39:46;98594.22;;;30.88;40.93
14902;BME280;7542;49.078;9.194;2023-06-22T00:40:48;98611.56;;;30.87;41.09
14902;BME280;7542;49.078;9.194;2023-06-22T00:41:50;98603.75;;;30.85;41.11
14902;BME280;7542;49.078;9.194;2023-06-22T00:42:52;98609.19;;;30.85;40.60
14902;BME280;7542;49.078;9.194;2023-06-22T00:43:54;98606.78;;;30.84;40.77
14902;BME280;7542;49.078;9.194;2023-06-22T00:44:56;98609.75;;;30.82;41.11
14902;BME280;7542;49.078;9.194;2023-06-22T00:45:59;98601.94;;;30.81;40.82
14902;BME280;7542;49.078;9.194;2023-06-22T00:47:01;98610.88;;;30.81;41.06
14902;BME280;7542;49.078;9.194;2023-06-22T00:48:04;98605.75;;;30.80;41.27
14902;BME280;7542;49.078;9.194;2023-06-22T00:49:06;98604.94;;;30.79;40.63
14902;BME280;7542;49.078;9.194;2023-06-22T00:50:10;98616.88;;;30.78;40.69
14902;BME280;7542;49.078;9.194;2023-06-22T00:51:15;98617.19;;;30.77;40.84
14902;BME280;7542;49.078;9.194;2023-06-22T00:52:19;98620.50;;;30.74;41.05
14902;BME280;7542;49.078;9.194;2023-06-22T00:53:22;98626.22;;;30.72;40.83
14902;BME280;7542;49.078;9.194;2023-06-22T00:54:25;98631.66;;;30.72;41.48
14902;BME280;7542;49.078;9.194;2023-06-22T00:55:27;98637.63;;;30.69;41.55
14902;BME280;7542;49.078;9.194;2023-06-22T00:56:29;98633.03;;;30.70;41.09
14902;BME280;7542;49.078;9.194;2023-06-22T00:57:32;98632.84;;;30.66;41.45
14902;BME280;7542;49.078;9.194;2023-06-22T00:58:36;98629.63;;;30.64;41.43
14902;BME280;7542;49.078;9.194;2023-06-22T00:59:38;98633.41;;;30.63;41.71
14902;BME280;7542;49.078;9.194;2023-06-22T01:00:41;98645.34;;;30.62;41.17
14902;BME280;7542;49.078;9.194;2023-06-22T01:01:44;98665.38;;;30.61;41.61
14902;BME280;7542;49.078;9.194;2023-06-22T01:02:47;98677.28;;;30.60;41.81
14902;BME280;7542;49.078;9.194;2023-06-22T01:03:53;98707.06;;;30.60;41.64
14902;BME280;7542;49.078;9.194;2023-06-22T01:04:59;98724.09;;;30.60;41.26
14902;BME280;7542;49.078;9.194;2023-06-22T01:06:15;98742.72;;;30.67;41.57
14902;BME280;7542;49.078;9.194;2023-06-22T01:07:42;98765.38;;;30.71;41.37
14902;BME280;7542;49.078;9.194;2023-06-22T01:08:59;98780.31;;;30.69;41.66
14902;BME280;7542;49.078;9.194;2023-06-22T01:11:57;98750.03;;;30.67;41.66
14902;BME280;7542;49.078;9.194;2023-06-22T01:13:20;98731.69;;;30.64;41.34
14902;BME280;7542;49.078;9.194;2023-06-22T01:15:05;98717.84;;;30.65;41.40
14902;BME280;7542;49.078;9.194;2023-06-22T01:16:29;98711.97;;;30.58;41.73
14902;BME280;7542;49.078;9.194;2023-06-22T01:17:32;98706.53;;;30.44;41.82
14902;BME280;7542;49.078;9.194;2023-06-22T01:18:38;98717.16;;;30.41;41.86
14902;BME280;7542;49.078;9.194;2023-06-22T01:19:51;98710.66;;;30.42;41.95
14902;BME280;7542;49.078;9.194;2023-06-22T01:21:00;98707.81;;;30.33;42.55
14902;BME280;7542;49.078;9.194;2023-06-22T01:22:06;98698.16;;;30.27;42.55
14902;BME280;7542;49.078;9.194;2023-06-22T01:25:19;98692.09;;;30.35;42.16
14902;BME280;7542;49.078;9.194;2023-06-22T01:29:12;98684.69;;;30.08;42.99
14902;BME280;7542;49.078;9.194;2023-06-22T01:30:18;98677.22;;;30.00;43.26
14902;BME280;7542;49.078;9.194;2023-06-22T01:31:25;98663.75;;;29.95;42.75
14902;BME280;7542;49.078;9.194;2023-06-22T01:32:34;98661.06;;;29.95;43.22
14902;BME280;7542;49.078;9.194;2023-06-22T01:33:42;98656.84;;;29.89;43.12
14902;BME280;7542;49.078;9.194;2023-06-22T01:34:46;98662.31;;;29.84;43.69
14902;BME280;7542;49.078;9.194;2023-06-22T01:35:49;98658.59;;;29.80;43.60
14902;BME280;7542;49.078;9.194;2023-06-22T01:36:52;98666.19;;;29.78;43.81
14902;BME280;7542;49.078;9.194;2023-06-22T01:37:55;98661.38;;;29.75;43.50
14902;BME280;7542;49.078;9.194;2023-06-22T01:38:58;98664.97;;;29.70;43.68
14902;BME280;7542;49.078;9.194;2023-06-22T01:40:02;98666.34;;;29.67;43.48
14902;BME280;7542;49.078;9.194;2023-06-22T01:41:07;98665.84;;;29.65;43.55
14902;BME280;7542;49.078;9.194;2023-06-22T01:42:10;98663.72;;;29.62;44.04
14902;BME280;7542;49.078;9.194;2023-06-22T01:43:12;98648.09;;;29.59;43.91
14902;BME280;7542;49.078;9.194;2023-06-22T01:44:14;98655.69;;;29.57;43.78
14902;BME280;7542;49.078;9.194;2023-06-22T01:45:17;98640.38;;;29.53;43.87
14902;BME280;7542;49.078;9.194;2023-06-22T01:46:21;98647.94;;;29.51;43.86
14902;BME280;7542;49.078;9.194;2023-06-22T01:47:25;98650.13;;;29.49;43.96
14902;BME280;7542;49.078;9.194;2023-06-22T01:48:28;98648.00;;;29.45;44.01
14902;BME280;7542;49.078;9.194;2023-06-22T01:49:30;98641.84;;;29.40;44.09
14902;BME280;7542;49.078;9.194;2023-06-22T01:50:32;98638.63;;;29.38;44.18
14902;BME280;7542;49.078;9.194;2023-06-22T01:51:34;98642.72;;;29.35;44.33
14902;BME280;7542;49.078;9.194;2023-06-22T01:52:36;98643.31;;;29.32;44.24
14902;BME280;7542;49.078;9.194;2023-06-22T01:53:39;98640.38;;;29.29;44.40
14902;BME280;7542;49.078;9.194;2023-06-22T01:54:41;98648.25;;;29.25;44.43
14902;BME280;7542;49.078;9.194;2023-06-22T01:55:43;98638.03;;;29.22;44.44
14902;BME280;7542;49.078;9.194;2023-06-22T01:56:45;98638.91;;;29.17;44.54
14902;BME280;7542;49.078;9.194;2023-06-22T01:57:47;98636.78;;;29.14;44.86
14902;BME280;7542;49.078;9.194;2023-06-22T01:59:04;98644.00;;;29.19;44.66
14902;BME280;7542;49.078;9.194;2023-06-22T02:00:20;98641.09;;;29.15;44.86
14902;BME280;7542;49.078;9.194;2023-06-22T02:01:32;98647.38;;;29.11;44.92
14902;BME280;7542;49.078;9.194;2023-06-22T02:03:01;98646.50;;;29.15;44.14
14902;BME280;7542;49.078;9.194;2023-06-22T02:04:21;98640.38;;;29.10;44.45
14902;BME280;7542;49.078;9.194;2023-06-22T02:05:30;98648.28;;;29.01;44.89
14902;BME280;7542;49.078;9.194;2023-06-22T02:06:39;98649.94;;;28.97;44.88
14902;BME280;7542;49.078;9.194;2023-06-22T02:07:51;98645.13;;;28.94;44.67
14902;BME280;7542;49.078;9.194;2023-06-22T02:09:01;98639.22;;;28.92;45.22
14902;BME280;7542;49.078;9.194;2023-06-22T02:10:06;98651.69;;;28.88;44.85
14902;BME280;7542;49.078;9.194;2023-06-22T02:11:11;98649.22;;;28.86;44.89
14902;BME280;7542;49.078;9.194;2023-06-22T02:12:22;98644.63;;;28.87;44.89
14902;BME280;7542;49.078;9.194;2023-06-22T02:13:27;98644.41;;;28.83;45.14
14902;BME280;7542;49.078;9.194;2023-06-22T02:14:29;98643.38;;;28.79;45.15
14902;BME280;7542;49.078;9.194;2023-06-22T02:15:32;98648.28;;;28.77;45.04
14902;BME280;7542;49.078;9.194;2023-06-22T02:16:35;98659.88;;;28.78;45.41
14902;BME280;7542;49.078;9.194;2023-06-22T02:17:38;98656.63;;;28.76;45.42
14902;BME280;7542;49.078;9.194;2023-06-22T02:18:47;98656.88;;;28.79;45.17
14902;BME280;7542;49.078;9.194;2023-06-22T02:19:52;98653.44;;;28.74;45.08
14902;BME280;7542;49.078;9.194;2023-06-22T02:20:54;98658.31;;;28.72;45.48
14902;BME280;7542;49.078;9.194;2023-06-22T02:21:57;98668.59;;;28.70;45.43
14902;BME280;7542;49.078;9.194;2023-06-22T02:23:00;98659.19;;;28.67;45.51
14902;BME280;7542;49.078;9.194;2023-06-22T02:24:02;98666.72;;;28.65;45.25
14902;BME280;7542;49.078;9.194;2023-06-22T02:25:04;98664.63;;;28.62;45.30
14902;BME280;7542;49.078;9.194;2023-06-22T02:26:07;98654.09;;;28.61;45.13
14902;BME280;7542;49.078;9.194;2023-06-22T02:27:09;98658.69;;;28.60;45.42
14902;BME280;7542;49.078;9.194;2023-06-22T02:28:12;98649.28;;;28.57;45.51
14902;BME280;7542;49.078;9.194;2023-06-22T02:29:14;98649.59;;;28.56;45.81
14902;BME280;7542;49.078;9.194;2023-06-22T02:30:16;98652.81;;;28.53;45.76
14902;BME280;7542;49.078;9.194;2023-06-22T02:31:19;98650.13;;;28.53;45.77
14902;BME280;7542;49.078;9.194;2023-06-22T02:32:22;98640.72;;;28.50;45.55
14902;BME280;7542;49.078;9.194;2023-06-22T02:33:26;98641.25;;;28.52;45.75
14902;BME280;7542;49.078;9.194;2023-06-22T02:34:28;98643.72;;;28.49;45.62
14902;BME280;7542;49.078;9.194;2023-06-22T02:35:30;98634.81;;;28.48;45.53
14902;BME280;7542;49.078;9.194;2023-06-22T02:36:34;98633.78;;;28.44;45.84
14902;BME280;7542;49.078;9.194;2023-06-22T02:37:37;98628.66;;;28.43;45.75
14902;BME280;7542;49.078;9.194;2023-06-22T02:38:44;98626.53;;;28.40;45.57
14902;BME280;7542;49.078;9.194;2023-06-22T02:39:50;98626.81;;;28.38;45.66
14902;BME280;7542;49.078;9.194;2023-06-22T02:40:52;98629.00;;;28.36;45.72
14902;BME280;7542;49.078;9.194;2023-06-22T02:41:54;98632.81;;;28.30;46.30
14902;BME280;7542;49.078;9.194;2023-06-22T02:42:58;98631.22;;;28.29;45.99
14902;BME280;7542;49.078;9.194;2023-06-22T02:44:04;98629.88;;;28.26;45.98
14902;BME280;7542;49.078;9.194;2023-06-22T02:45:07;98632.84;;;28.25;45.89
14902;BME280;7542;49.078;9.194;2023-06-22T02:46:09;98623.16;;;28.24;45.93
14902;BME280;7542;49.078;9.194;2023-06-22T02:47:11;98615.09;;;28.19;46.10
14902;BME280;7542;49.078;9.194;2023-06-22T02:48:13;98625.09;;;28.18;46.12
14902;BME280;7542;49.078;9.194;2023-06-22T02:49:15;98612.19;;;28.15;46.31
14902;BME280;7542;49.078;9.194;2023-06-22T02:50:17;98617.88;;;28.14;46.31
14902;BME280;7542;49.078;9.194;2023-06-22T02:51:19;98613.00;;;28.11;46.46
14902;BME280;7542;49.078;9.194;2023-06-22T02:52:21;98615.72;;;28.11;46.41
14902;BME280;7542;49.078;9.194;2023-06-22T02:53:23;98616.78;;;28.10;46.38
14902;BME280;7542;49.078;9.194;2023-06-22T02:54:25;98621.38;;;28.09;46.44
14902;BME280;7542;49.078;9.194;2023-06-22T02:55:27;98617.38;;;28.07;46.38
14902;BME280;7542;49.078;9.194;2023-06-22T02:56:29;98618.47;;;28.06;46.50
14902;BME280;7542;49.078;9.194;2023-06-22T02:57:32;98624.94;;;28.05;46.37
14902;BME280;7542;49.078;9.194;2023-06-22T02:58:34;98606.38;;;28.03;46.55
14902;BME280;7542;49.078;9.194;2023-06-22T02:59:41;98606.66;;;28.01;46.42
14902;BME280;7542;49.078;9.194;2023-06-22T03:00:43;98608.28;;;27.97;46.65
14902;BME280;7542;49.078;9.194;2023-06-22T03:01:46;98616.38;;;27.97;46.47
14902;BME280;7542;49.078;9.194;2023-06-22T03:02:49;98606.16;;;27.94;46.99
14902;BME280;7542;49.078;9.194;2023-06-22T03:03:52;98618.03;;;27.93;46.89
14902;BME280;7542;49.078;9.194;2023-06-22T03:04:54;98614.00;;;27.91;46.57
14902;BME280;7542;49.078;9.194;2023-06-22T03:05:56;98616.97;;;27.89;47.12
14902;BME280;7542;49.078;9.194;2023-06-22T03:06:59;98608.38;;;27.87;47.09
14902;BME280;7542;49.078;9.194;2023-06-22T03:08:03;98618.06;;;27.88;47.09
14902;BME280;7542;49.078;9.194;2023-06-22T03:09:05;98607.56;;;27.87;47.09
14902;BME280;7542;49.078;9.194;2023-06-22T03:10:08;98607.34;;;27.83;47.27
14902;BME280;7542;49.078;9.194;2023-06-22T03:11:11;98604.34;;;27.85;46.98
14902;BME280;7542;49.078;9.194;2023-06-22T03:12:13;98608.41;;;27.82;47.07
14902;BME280;7542;49.078;9.194;2023-06-22T03:13:15;98610.31;;;27.82;47.31
14902;BME280;7542;49.078;9.194;2023-06-22T03:14:18;98606.81;;;27.81;47.25
14902;BME280;7542;49.078;9.194;2023-06-22T03:15:20;98614.91;;;27.81;47.13
14902;BME280;7542;49.078;9.194;2023-06-22T03:16:24;98606.81;;;27.81;47.19
14902;BME280;7542;49.078;9.194;2023-06-22T03:17:26;98610.03;;;27.83;47.13
14902;BME280;7542;49.078;9.194;2023-06-22T03:18:28;98611.34;;;27.86;47.29
14902;BME280;7542;49.078;9.194;2023-06-22T03:19:32;98609.97;;;27.88;47.09
14902;BME280;7542;49.078;9.194;2023-06-22T03:20:35;98610.50;;;27.90;47.12
14902;BME280;7542;49.078;9.194;2023-06-22T03:21:38;98606.72;;;27.91;47.03
14902;BME280;7542;49.078;9.194;2023-06-22T03:22:41;98599.97;;;27.94;47.05
14902;BME280;7542;49.078;9.194;2023-06-22T03:23:46;98614.75;;;27.96;47.03
14902;BME280;7542;49.078;9.194;2023-06-22T03:24:48;98604.50;;;27.98;46.90
14902;BME280;7542;49.078;9.194;2023-06-22T03:25:51;98605.03;;;28.00;47.05
14902;BME280;7542;49.078;9.194;2023-06-22T03:26:53;98607.97;;;28.04;47.00
14902;BME280;7542;49.078;9.194;2023-06-22T03:27:56;98597.41;;;28.08;47.36
14902;BME280;7542;49.078;9.194;2023-06-22T03:28:58;98606.03;;;28.10;46.97
14902;BME280;7542;49.078;9.194;2023-06-22T03:30:00;98605.19;;;28.14;46.88
14902;BME280;7542;49.078;9.194;2023-06-22T03:31:03;98607.00;;;28.19;46.90
14902;BME280;7542;49.078;9.194;2023-06-22T03:32:08;98601.59;;;28.24;46.80
14902;BME280;7542;49.078;9.194;2023-06-22T03:33:10;98604.53;;;28.27;46.73
14902;BME280;7542;49.078;9.194;2023-06-22T03:34:12;98602.06;;;28.31;46.51
14902;BME280;7542;49.078;9.194;2023-06-22T03:35:14;98601.53;;;28.34;46.39
14902;BME280;7542;49.078;9.194;2023-06-22T03:36:17;98602.56;;;28.38;46.63
14902;BME280;7542;49.078;9.194;2023-06-22T03:37:25;98601.69;;;28.43;46.32
14902;BME280;7542;49.078;9.194;2023-06-22T03:38:27;98596.03;;;28.44;46.21
14902;BME280;7542;49.078;9.194;2023-06-22T03:39:30;98593.56;;;28.48;46.35
14902;BME280;7542;49.078;9.194;2023-06-22T03:40:31;98599.47;;;28.50;45.81
14902;BME280;7542;49.078;9.194;2023-06-22T03:41:34;98590.78;;;28.53;46.07
14902;BME280;7542;49.078;9.194;2023-06-22T03:42:36;98591.31;;;28.55;45.81
14902;BME280;7542;49.078;9.194;2023-06-22T03:43:38;98585.63;;;28.56;45.95
14902;BME280;7542;49.078;9.194;2023-06-22T03:44:40;98592.06;;;28.61;45.88
14902;BME280;7542;49.078;9.194;2023-06-22T03:45:42;98591.47;;;28.64;45.60
14902;BME280;7542;49.078;9.194;2023-06-22T03:46:47;98600.13;;;28.66;45.62
14902;BME280;7542;49.078;9.194;2023-06-22T03:47:49;98600.63;;;28.68;45.91
14902;BME280;7542;49.078;9.194;2023-06-22T03:48:51;98605.72;;;28.69;45.59
14902;BME280;7542;49.078;9.194;2023-06-22T03:49:53;98597.34;;;28.71;45.48
14902;BME280;7542;49.078;9.194;2023-06-22T03:50:58;98601.34;;;28.73;45.50
14902;BME280;7542;49.078;9.194;2023-06-22T03:52:02;98598.34;;;28.75;45.40
14902;BME280;7542;49.078;9.194;2023-06-22T03:53:05;98600.75;;;28.76;45.71
14902;BME280;7542;49.078;9.194;2023-06-22T03:54:07;98602.09;;;28.79;45.57
14902;BME280;7542;49.078;9.194;2023-06-22T03:55:09;98601.00;;;28.80;45.32
14902;BME280;7542;49.078;9.194;2023-06-22T03:56:11;98601.53;;;28.82;45.21
14902;BME280;7542;49.078;9.194;2023-06-22T03:57:13;98601.53;;;28.82;45.34
14902;BME280;7542;49.078;9.194;2023-06-22T03:58:16;98604.72;;;28.84;45.52
14902;BME280;7542;49.078;9.194;2023-06-22T03:59:20;98608.50;;;28.88;45.34
14902;BME280;7542;49.078;9.194;2023-06-22T04:00:24;98603.13;;;28.88;45.23
14902;BME280;7542;49.078;9.194;2023-06-22T04:01:26;98598.22;;;28.90;45.22
14902;BME280;7542;49.078;9.194;2023-06-22T04:02:28;98600.13;;;28.90;45.22
14902;BME280;7542;49.078;9.194;2023-06-22T04:03:30;98595.22;;;28.92;45.24
14902;BME280;7542;49.078;9.194;2023-06-22T04:04:32;98596.03;;;28.92;45.44
14902;BME280;7542;49.078;9.194;2023-06-22T04:05:39;98591.44;;;28.93;45.07
14902;BME280;7542;49.078;9.194;2023-06-22T04:06:41;98585.44;;;28.96;45.17
14902;BME280;7542;49.078;9.194;2023-06-22T04:07:43;98590.84;;;28.96;44.85
14902;BME280;7542;49.078;9.194;2023-06-22T04:08:46;98596.75;;;28.98;44.94
14902;BME280;7542;49.078;9.194;2023-06-22T04:09:53;98593.25;;;28.97;44.70
14902;BME280;7542;49.078;9.194;2023-06-22T04:10:55;98592.19;;;28.98;44.94
14902;BME280;7542;49.078;9.194;2023-06-22T04:11:57;98585.69;;;28.99;45.15
14902;BME280;7542;49.078;9.194;2023-06-22T04:13:00;98587.00;;;29.02;44.94
14902;BME280;7542;49.078;9.194;2023-06-22T04:14:02;98582.19;;;28.99;45.06
14902;BME280;7542;49.078;9.194;2023-06-22T04:15:05;98587.50;;;29.04;44.86
14902;BME280;7542;49.078;9.194;2023-06-22T04:16:07;98589.41;;;29.03;44.74
14902;BME280;7542;49.078;9.194;2023-06-22T04:17:09;98585.91;;;29.03;44.96
14902;BME280;7542;49.078;9.194;2023-06-22T04:18:12;98582.91;;;29.04;45.28
14902;BME280;7542;49.078;9.194;2023-06-22T04:19:15;98588.03;;;29.06;44.64
14902;BME280;7542;49.078;9.194;2023-06-22T04:20:19;98591.53;;;29.06;44.83
14902;BME280;7542;49.078;9.194;2023-06-22T04:21:21;98589.63;;;29.07;45.19
14902;BME280;7542;49.078;9.194;2023-06-22T04:22:25;98584.22;;;29.07;44.66
14902;BME280;7542;49.078;9.194;2023-06-22T04:23:27;98583.94;;;29.08;44.97
14902;BME280;7542;49.078;9.194;2023-06-22T04:24:29;98579.31;;;29.09;45.15
14902;BME280;7542;49.078;9.194;2023-06-22T04:25:31;98582.03;;;29.09;44.67
14902;BME280;7542;49.078;9.194;2023-06-22T04:26:33;98587.16;;;29.10;44.87
14902;BME280;7542;49.078;9.194;2023-06-22T04:27:38;98585.25;;;29.11;44.96
14902;BME280;7542;49.078;9.194;2023-06-22T04:28:42;98587.16;;;29.10;45.04
14902;BME280;7542;49.078;9.194;2023-06-22T04:29:44;98589.56;;;29.12;44.80
14902;BME280;7542;49.078;9.194;2023-06-22T04:30:50;98582.28;;;29.12;44.88
14902;BME280;7542;49.078;9.194;2023-06-22T04:31:52;98583.06;;;29.13;44.86
14902;BME280;7542;49.078;9.194;2023-06-22T04:32:54;98586.56;;;29.13;44.88
14902;BME280;7542;49.078;9.194;2023-06-22T04:34:00;98583.59;;;29.15;44.66
14902;BME280;7542;49.078;9.194;2023-06-22T04:35:08;98588.19;;;29.14;44.79
14902;BME280;7542;49.078;9.194;2023-06-22T04:36:10;98579.78;;;29.16;44.82
14902;BME280;7542;49.078;9.194;2023-06-22T04:37:15;98578.97;;;29.15;44.69
14902;BME280;7542;49.078;9.194;2023-06-22T04:38:17;98573.28;;;29.17;45.00
14902;BME280;7542;49.078;9.194;2023-06-22T04:39:19;98576.00;;;29.17;45.18
14902;BME280;7542;49.078;9.194;2023-06-22T04:40:25;98578.38;;;29.19;44.82
14902;BME280;7542;49.078;9.194;2023-06-22T04:41:28;98576.28;;;29.15;44.81
14902;BME280;7542;49.078;9.194;2023-06-22T04:42:30;98574.88;;;29.18;44.74
14902;BME280;7542;49.078;9.194;2023-06-22T04:43:34;98565.28;;;29.12;45.05
14902;BME280;7542;49.078;9.194;2023-06-22T04:44:36;98577.28;;;29.20;44.65
14902;BME280;7542;49.078;9.194;2023-06-22T04:45:38;98573.78;;;29.19;45.02
14902;BME280;7542;49.078;9.194;2023-06-22T04:46:40;98566.78;;;29.18;45.18
14902;BME280;7542;49.078;9.194;2023-06-22T04:47:42;98562.72;;;29.21;44.65
14902;BME280;7542;49.078;9.194;2023-06-22T04:48:44;98565.69;;;29.19;44.91
14902;BME280;7542;49.078;9.194;2023-06-22T04:49:46;98569.19;;;29.20;44.70
14902;BME280;7542;49.078;9.194;2023-06-22T04:50:48;98566.22;;;29.21;44.69
14902;BME280;7542;49.078;9.194;2023-06-22T04:51:50;98565.41;;;29.21;44.69
14902;BME280;7542;49.078;9.194;2023-06-22T04:52:53;98562.44;;;29.22;44.67
14902;BME280;7542;49.078;9.194;2023-06-22T04:53:55;98561.34;;;29.23;45.15
14902;BME280;7542;49.078;9.194;2023-06-22T04:55:02;98569.44;;;29.23;44.71
14902;BME280;7542;49.078;9.194;2023-06-22T04:56:05;98558.63;;;29.23;45.14
14902;BME280;7542;49.078;9.194;2023-06-22T04:57:07;98564.84;;;29.24;44.86
14902;BME280;7542;49.078;9.194;2023-06-22T04:58:12;98563.44;;;29.26;44.59
14902;BME280;7542;49.078;9.194;2023-06-22T04:59:15;98558.03;;;29.26;44.67
14902;BME280;7542;49.078;9.194;2023-06-22T05:00:18;98558.84;;;29.27;44.58
14902;BME280;7542;49.078;9.194;2023-06-22T05:01:24;98561.25;;;29.28;45.09
14902;BME280;7542;49.078;9.194;2023-06-22T05:02:27;98556.66;;;29.29;44.92
14902;BME280;7542;49.078;9.194;2023-06-22T05:03:34;98557.44;;;29.29;44.74
14902;BME280;7542;49.078;9.194;2023-06-22T05:04:38;98560.16;;;29.29;44.93
14902;BME280;7542;49.078;9.194;2023-06-22T05:05:41;98561.75;;;29.30;44.84
14902;BME280;7542;49.078;9.194;2023-06-22T05:06:43;98556.06;;;29.32;44.47
14902;BME280;7542;49.078;9.194;2023-06-22T05:07:47;98558.47;;;29.33;44.83
14902;BME280;7542;49.078;9.194;2023-06-22T05:08:54;98560.38;;;29.33;44.64
14902;BME280;7542;49.078;9.194;2023-06-22T05:10:03;98553.28;;;29.37;44.84
14902;BME280;7542;49.078;9.194;2023-06-22T05:11:05;98552.78;;;29.35;44.75
14902;BME280;7542;49.078;9.194;2023-06-22T05:12:08;98556.28;;;29.35;44.79
14902;BME280;7542;49.078;9.194;2023-06-22T05:13:12;98552.47;;;29.36;44.88
14902;BME280;7542;49.078;9.194;2023-06-22T05:14:14;98548.97;;;29.36;44.76
14902;BME280;7542;49.078;9.194;2023-06-22T05:15:17;98555.19;;;29.36;44.93
14902;BME280;7542;49.078;9.194;2023-06-22T05:16:24;98550.28;;;29.38;44.46
14902;BME280;7542;49.078;9.194;2023-06-22T05:17:27;98554.09;;;29.37;44.76
14902;BME280;7542;49.078;9.194;2023-06-22T05:18:31;98551.88;;;29.39;44.90
14902;BME280;7542;49.078;9.194;2023-06-22T05:19:33;98551.09;;;29.39;44.82
14902;BME280;7542;49.078;9.194;2023-06-22T05:20:36;98549.19;;;29.39;44.62
14902;BME280;7542;49.078;9.194;2023-06-22T05:21:38;98550.28;;;29.38;44.75
14902;BME280;7542;49.078;9.194;2023-06-22T05:22:40;98546.50;;;29.39;44.95
14902;BME280;7542;49.078;9.194;2023-06-22T05:23:42;98550.00;;;29.40;44.88
14902;BME280;7542;49.078;9.194;2023-06-22T05:24:45;98550.00;;;29.40;44.59
14902;BME280;7542;49.078;9.194;2023-06-22T05:25:48;98542.41;;;29.42;44.95
14902;BME280;7542;49.078;9.194;2023-06-22T05:26:50;98534.31;;;29.42;44.50
14902;BME280;7542;49.078;9.194;2023-06-22T05:27:53;98540.22;;;29.44;44.40
14902;BME280;7542;49.078;9.194;2023-06-22T05:28:55;98545.63;;;29.44;44.43
14902;BME280;7542;49.078;9.194;2023-06-22T05:29:58;98536.72;;;29.43;44.61
14902;BME280;7542;49.078;9.194;2023-06-22T05:31:00;98534.53;;;29.45;44.29
14902;BME280;7542;49.078;9.194;2023-06-22T05:32:03;98542.63;;;29.45;44.41
14902;BME280;7542;49.078;9.194;2023-06-22T05:33:06;98545.03;;;29.47;44.65
14902;BME280;7542;49.078;9.194;2023-06-22T05:34:08;98542.88;;;29.49;44.20
14902;BME280;7542;49.078;9.194;2023-06-22T05:35:11;98539.84;;;29.51;44.94
14902;BME280;7542;49.078;9.194;2023-06-22T05:36:13;98544.97;;;29.52;44.81
14902;BME280;7542;49.078;9.194;2023-06-22T05:37:15;98527.94;;;29.52;44.53
14902;BME280;7542;49.078;9.194;2023-06-22T05:38:17;98532.00;;;29.54;44.42
14902;BME280;7542;49.078;9.194;2023-06-22T05:39:19;98544.41;;;29.55;44.65
14902;BME280;7542;49.078;9.194;2023-06-22T05:40:22;98530.59;;;29.57;44.77
14902;BME280;7542;49.078;9.194;2023-06-22T05:41:24;98540.28;;;29.58;44.72
14902;BME280;7542;49.078;9.194;2023-06-22T05:42:26;98540.28;;;29.58;44.67
14902;BME280;7542;49.078;9.194;2023-06-22T05:43:28;98535.41;;;29.60;44.83
14902;BME280;7542;49.078;9.194;2023-06-22T05:44:30;98540.00;;;29.59;44.57
14902;BME280;7542;49.078;9.194;2023-06-22T05:45:32;98538.59;;;29.62;44.59
14902;BME280;7542;49.078;9.194;2023-06-22T05:46:34;98539.41;;;29.62;44.75
14902;BME280;7542;49.078;9.194;2023-06-22T05:47:36;98539.94;;;29.64;44.32
14902;BME280;7542;49.078;9.194;2023-06-22T05:48:38;98531.81;;;29.64;44.33